sensor_id;sensor_type;location;lat;lon;timestamp;temperature;humidity
2008;DHT22;47741;52.306;8.904;2022-11-02T00:01:49;13.60;99.90
2008;DHT22;47741;52.306;8.904;2022-11-02T00:04:35;13.80;99.90
2008;DHT22;47741;52.306;8.904;2022-11-02T00:07:21;13.80;99.90
2008;DHT22;47741;52.306;8.904;2022-11-02T00:10:07;14.00;99.90
2008;DHT22;47741;52.306;8.904;2022-11-02T00:12:54;14.10;99.90
2008;DHT22;47741;52.306;8.904;2022-11-02T00:15:40;14.00;99.90
2008;DHT22;47741;52.306;8.904;2022-11-02T00:18:28;14.30;99.90
2008;DHT22;47741;52.306;8.904;2022-11-02T00:21:16;14.30;99.90
2008;DHT22;47741;52.306;8.904;2022-11-02T00:24:03;14.40;99.90
2008;DHT22;47741;52.306;8.904;2022-11-02T00:26:50;14.50;99.90
2008;DHT22;47741;52.306;8.904;2022-11-02T00:29:39;14.10;99.90
2008;DHT22;47741;52.306;8.904;2022-11-02T00:32:25;14.50;99.90
2008;DHT22;47741;52.306;8.904;2022-11-02T00:35:11;14.50;99.90
2008;DHT22;47741;52.306;8.904;2022-11-02T00:37:57;14.50;99.90
2008;DHT22;47741;52.306;8.904;2022-11-02T00:40:43;14.70;99.90
2008;DHT22;47741;52.306;8.904;2022-11-02T00:43:29;14.50;99.90
2008;DHT22;47741;52.306;8.904;2022-11-02T00:46:15;14.40;99.90
2008;DHT22;47741;52.306;8.904;2022-11-02T00:49:01;14.30;99.90
2008;DHT22;47741;52.306;8.904;2022-11-02T00:51:47;14.30;99.90
2008;DHT22;47741;52.306;8.904;2022-11-02T00:54:33;14.00;99.90
2008;DHT22;47741;52.306;8.904;2022-11-02T00:57:20;14.00;99.90
2008;DHT22;47741;52.306;8.904;2022-11-02T01:00:09;14.10;99.90
2008;DHT22;47741;52.306;8.904;2022-11-02T01:02:58;13.90;99.90
2008;DHT22;47741;52.306;8.904;2022-11-02T01:05:45;14.00;99.90
2008;DHT22;47741;52.306;8.904;2022-11-02T01:08:34;14.00;99.90
2008;DHT22;47741;52.306;8.904;2022-11-02T01:11:21;14.00;99.90
2008;DHT22;47741;52.306;8.904;2022-11-02T01:14:13;14.20;99.90
2008;DHT22;47741;52.306;8.904;2022-11-02T01:17:01;14.10;99.90
2008;DHT22;47741;52.306;8.904;2022-11-02T01:19:48;14.20;99.90
2008;DHT22;47741;52.306;8.904;2022-11-02T01:22:35;14.20;99.90
2008;DHT22;47741;52.306;8.904;2022-11-02T01:25:23;14.20;99.90
2008;DHT22;47741;52.306;8.904;2022-11-02T01:28:09;14.30;99.90
2008;DHT22;47741;52.306;8.904;2022-11-02T01:30:55;14.30;99.90
2008;DHT22;47741;52.306;8.904;2022-11-02T01:33:44;14.30;99.90
2008;DHT22;47741;52.306;8.904;2022-11-02T01:36:30;14.30;99.90
2008;DHT22;47741;52.306;8.904;2022-11-02T01:39:16;14.30;99.90
2008;DHT22;47741;52.306;8.904;2022-11-02T01:42:02;14.40;99.90
2008;DHT22;47741;52.306;8.904;2022-11-02T01:44:48;14.30;99.90
2008;DHT22;47741;52.306;8.904;2022-11-02T01:47:35;14.30;99.90
2008;DHT22;47741;52.306;8.904;2022-11-02T01:50:23;14.30;99.90
2008;DHT22;47741;52.306;8.904;2022-11-02T01:53:10;14.40;99.90
2008;DHT22;47741;52.306;8.904;2022-11-02T01:55:56;14.40;99.90
2008;DHT22;47741;52.306;8.904;2022-11-02T01:58:43;14.40;99.90
2008;DHT22;47741;52.306;8.904;2022-11-02T02:01:32;14.30;99.90
2008;DHT22;47741;52.306;8.904;2022-11-02T02:04:20;14.40;99.90
2008;DHT22;47741;52.306;8.904;2022-11-02T02:07:07;14.30;99.90
2008;DHT22;47741;52.306;8.904;2022-11-02T02:09:55;14.40;99.90
2008;DHT22;47741;52.306;8.904;2022-11-02T02:12:41;14.60;99.90
2008;DHT22;47741;52.306;8.904;2022-11-02T02:15:31;14.80;99.90
2008;DHT22;47741;52.306;8.904;2022-11-02T02:18:35;14.60;99.90
2008;DHT22;47741;52.306;8.904;2022-11-02T02:21:44;14.70;99.90
2008;DHT22;47741;52.306;8.904;2022-11-02T02:24:43;14.80;99.90
2008;DHT22;47741;52.306;8.904;2022-11-02T02:30:38;14.60;99.90
2008;DHT22;47741;52.306;8.904;2022-11-02T02:33:30;14.60;99.90
2008;DHT22;47741;52.306;8.904;2022-11-02T02:36:23;14.50;99.90
2008;DHT22;47741;52.306;8.904;2022-11-02T02:42:11;14.50;99.90
2008;DHT22;47741;52.306;8.904;2022-11-02T02:47:53;14.20;99.90
2008;DHT22;47741;52.306;8.904;2022-11-02T02:53:36;14.30;99.90
2008;DHT22;47741;52.306;8.904;2022-11-02T02:56:25;14.30;99.90
2008;DHT22;47741;52.306;8.904;2022-11-02T02:59:16;14.30;99.90
2008;DHT22;47741;52.306;8.904;2022-11-02T03:02:07;14.30;99.90
2008;DHT22;47741;52.306;8.904;2022-11-02T03:04:58;14.00;99.90
2008;DHT22;47741;52.306;8.904;2022-11-02T03:07:44;14.00;99.90
2008;DHT22;47741;52.306;8.904;2022-11-02T03:16:22;14.00;99.90
2008;DHT22;47741;52.306;8.904;2022-11-02T03:19:23;13.80;99.90
2008;DHT22;47741;52.306;8.904;2022-11-02T03:32:16;13.60;99.90
2008;DHT22;47741;52.306;8.904;2022-11-02T03:35:07;13.60;99.90
2008;DHT22;47741;52.306;8.904;2022-11-02T03:38:01;13.50;99.90
2008;DHT22;47741;52.306;8.904;2022-11-02T03:40:51;13.70;99.90
2008;DHT22;47741;52.306;8.904;2022-11-02T03:43:39;13.50;99.90
2008;DHT22;47741;52.306;8.904;2022-11-02T03:46:28;13.40;99.90
2008;DHT22;47741;52.306;8.904;2022-11-02T03:49:17;13.50;99.90
2008;DHT22;47741;52.306;8.904;2022-11-02T03:52:07;13.40;99.90
2008;DHT22;47741;52.306;8.904;2022-11-02T03:55:05;12.70;99.90
2008;DHT22;47741;52.306;8.904;2022-11-02T03:57:55;13.50;99.90
2008;DHT22;47741;52.306;8.904;2022-11-02T04:00:50;13.40;99.90
2008;DHT22;47741;52.306;8.904;2022-11-02T04:03:39;13.70;99.90
2008;DHT22;47741;52.306;8.904;2022-11-02T04:06:28;13.60;99.90
2008;DHT22;47741;52.306;8.904;2022-11-02T04:09:14;13.60;99.90
2008;DHT22;47741;52.306;8.904;2022-11-02T04:15:07;13.40;99.90
2008;DHT22;47741;52.306;8.904;2022-11-02T04:21:03;13.50;99.90
2008;DHT22;47741;52.306;8.904;2022-11-02T04:23:51;13.80;99.90
2008;DHT22;47741;52.306;8.904;2022-11-02T04:26:55;13.60;99.90
2008;DHT22;47741;52.306;8.904;2022-11-02T04:29:41;13.50;99.90
2008;DHT22;47741;52.306;8.904;2022-11-02T04:32:30;13.60;99.90
2008;DHT22;47741;52.306;8.904;2022-11-02T04:44:27;13.40;99.90
2008;DHT22;47741;52.306;8.904;2022-11-02T04:47:15;13.50;99.90
2008;DHT22;47741;52.306;8.904;2022-11-02T04:50:04;13.40;99.90
2008;DHT22;47741;52.306;8.904;2022-11-02T05:12:22;13.30;99.90
2008;DHT22;47741;52.306;8.904;2022-11-02T05:17:54;13.60;99.90
2008;DHT22;47741;52.306;8.904;2022-11-02T05:20:40;13.60;99.90
2008;DHT22;47741;52.306;8.904;2022-11-02T05:23:26;13.50;99.90
2008;DHT22;47741;52.306;8.904;2022-11-02T05:26:12;13.40;99.90
2008;DHT22;47741;52.306;8.904;2022-11-02T05:28:59;13.50;99.90
2008;DHT22;47741;52.306;8.904;2022-11-02T05:31:44;13.40;99.90
2008;DHT22;47741;52.306;8.904;2022-11-02T05:34:30;13.40;99.90
2008;DHT22;47741;52.306;8.904;2022-11-02T05:37:16;13.50;99.90
2008;DHT22;47741;52.306;8.904;2022-11-02T05:40:03;13.30;99.90
2008;DHT22;47741;52.306;8.904;2022-11-02T05:42:49;13.40;99.90
2008;DHT22;47741;52.306;8.904;2022-11-02T05:45:35;13.40;99.90
2008;DHT22;47741;52.306;8.904;2022-11-02T05:48:22;13.40;99.90
2008;DHT22;47741;52.306;8.904;2022-11-02T05:51:09;13.50;99.90
2008;DHT22;47741;52.306;8.904;2022-11-02T05:53:55;13.50;99.90
2008;DHT22;47741;52.306;8.904;2022-11-02T05:56:43;13.50;99.90
2008;DHT22;47741;52.306;8.904;2022-11-02T05:59:29;13.50;99.90
2008;DHT22;47741;52.306;8.904;2022-11-02T06:02:18;13.50;99.90
2008;DHT22;47741;52.306;8.904;2022-11-02T06:05:04;13.40;99.90
2008;DHT22;47741;52.306;8.904;2022-11-02T06:07:50;13.40;99.90
2008;DHT22;47741;52.306;8.904;2022-11-02T06:10:36;13.50;99.90
2008;DHT22;47741;52.306;8.904;2022-11-02T06:21:49;13.30;99.90
2008;DHT22;47741;52.306;8.904;2022-11-02T06:24:35;13.50;99.90
2008;DHT22;47741;52.306;8.904;2022-11-02T06:27:24;13.50;99.90
2008;DHT22;47741;52.306;8.904;2022-11-02T06:30:17;13.50;99.90
2008;DHT22;47741;52.306;8.904;2022-11-02T06:33:03;13.40;99.90
2008;DHT22;47741;52.306;8.904;2022-11-02T06:35:50;13.40;99.90
2008;DHT22;47741;52.306;8.904;2022-11-02T06:38:36;13.80;99.90
2008;DHT22;47741;52.306;8.904;2022-11-02T06:41:26;13.90;99.90
2008;DHT22;47741;52.306;8.904;2022-11-02T06:44:17;14.00;99.90
2008;DHT22;47741;52.306;8.904;2022-11-02T06:47:08;13.90;99.90
2008;DHT22;47741;52.306;8.904;2022-11-02T06:49:56;14.10;99.90
2008;DHT22;47741;52.306;8.904;2022-11-02T06:52:45;14.00;99.90
2008;DHT22;47741;52.306;8.904;2022-11-02T06:55:32;14.00;99.90
2008;DHT22;47741;52.306;8.904;2022-11-02T06:58:20;14.20;99.90
2008;DHT22;47741;52.306;8.904;2022-11-02T07:01:07;14.10;99.90
2008;DHT22;47741;52.306;8.904;2022-11-02T07:03:53;14.10;99.90
2008;DHT22;47741;52.306;8.904;2022-11-02T07:06:42;14.10;99.90
2008;DHT22;47741;52.306;8.904;2022-11-02T07:09:27;14.20;99.90
2008;DHT22;47741;52.306;8.904;2022-11-02T07:12:19;14.40;99.90
2008;DHT22;47741;52.306;8.904;2022-11-02T07:15:05;14.30;99.90
2008;DHT22;47741;52.306;8.904;2022-11-02T07:17:54;14.20;99.90
2008;DHT22;47741;52.306;8.904;2022-11-02T07:20:40;14.40;99.90
2008;DHT22;47741;52.306;8.904;2022-11-02T07:23:25;14.30;99.90
2008;DHT22;47741;52.306;8.904;2022-11-02T07:26:12;14.30;99.90
2008;DHT22;47741;52.306;8.904;2022-11-02T07:28:58;14.10;99.90
2008;DHT22;47741;52.306;8.904;2022-11-02T07:31:44;13.90;99.90
2008;DHT22;47741;52.306;8.904;2022-11-02T07:34:30;14.00;99.90
2008;DHT22;47741;52.306;8.904;2022-11-02T07:37:18;14.10;99.90
2008;DHT22;47741;52.306;8.904;2022-11-02T07:40:05;14.10;99.90
2008;DHT22;47741;52.306;8.904;2022-11-02T07:42:54;14.10;99.90
2008;DHT22;47741;52.306;8.904;2022-11-02T07:45:41;14.20;99.90
2008;DHT22;47741;52.306;8.904;2022-11-02T07:48:29;14.30;99.90
2008;DHT22;47741;52.306;8.904;2022-11-02T07:51:15;14.40;99.90
2008;DHT22;47741;52.306;8.904;2022-11-02T07:54:03;14.30;99.90
2008;DHT22;47741;52.306;8.904;2022-11-02T07:56:51;14.40;99.90
2008;DHT22;47741;52.306;8.904;2022-11-02T07:59:38;14.60;99.90
2008;DHT22;47741;52.306;8.904;2022-11-02T08:02:26;14.70;99.90
2008;DHT22;47741;52.306;8.904;2022-11-02T08:05:12;14.60;99.90
2008;DHT22;47741;52.306;8.904;2022-11-02T08:07:59;14.80;99.90
2008;DHT22;47741;52.306;8.904;2022-11-02T08:10:46;14.70;99.90
2008;DHT22;47741;52.306;8.904;2022-11-02T08:13:35;14.60;99.90
2008;DHT22;47741;52.306;8.904;2022-11-02T08:16:22;14.70;99.90
2008;DHT22;47741;52.306;8.904;2022-11-02T08:19:10;14.70;99.90
2008;DHT22;47741;52.306;8.904;2022-11-02T08:21:56;14.60;99.90
2008;DHT22;47741;52.306;8.904;2022-11-02T08:24:44;14.50;99.90
2008;DHT22;47741;52.306;8.904;2022-11-02T08:27:30;14.60;99.90
2008;DHT22;47741;52.306;8.904;2022-11-02T08:30:16;14.50;99.90
2008;DHT22;47741;52.306;8.904;2022-11-02T08:33:07;14.50;99.90
2008;DHT22;47741;52.306;8.904;2022-11-02T08:36:00;14.60;99.90
2008;DHT22;47741;52.306;8.904;2022-11-02T08:38:48;14.40;99.90
2008;DHT22;47741;52.306;8.904;2022-11-02T08:41:34;14.40;99.90
2008;DHT22;47741;52.306;8.904;2022-11-02T08:44:22;14.70;99.90
2008;DHT22;47741;52.306;8.904;2022-11-02T08:47:08;14.60;99.90
2008;DHT22;47741;52.306;8.904;2022-11-02T08:49:54;14.60;99.90
2008;DHT22;47741;52.306;8.904;2022-11-02T08:52:40;14.60;99.90
2008;DHT22;47741;52.306;8.904;2022-11-02T08:55:28;14.60;99.90
2008;DHT22;47741;52.306;8.904;2022-11-02T08:58:15;14.90;99.90
2008;DHT22;47741;52.306;8.904;2022-11-02T09:01:01;15.20;99.90
2008;DHT22;47741;52.306;8.904;2022-11-02T09:03:49;15.00;99.90
2008;DHT22;47741;52.306;8.904;2022-11-02T09:06:35;14.90;99.90
2008;DHT22;47741;52.306;8.904;2022-11-02T09:09:23;15.10;99.90
2008;DHT22;47741;52.306;8.904;2022-11-02T09:12:09;15.20;99.90
2008;DHT22;47741;52.306;8.904;2022-11-02T09:14:58;15.20;99.90
2008;DHT22;47741;52.306;8.904;2022-11-02T09:17:46;15.00;99.90
2008;DHT22;47741;52.306;8.904;2022-11-02T09:20:33;15.10;99.90
2008;DHT22;47741;52.306;8.904;2022-11-02T09:26:11;14.70;99.90
2008;DHT22;47741;52.306;8.904;2022-11-02T11:16:02;15.80;99.90
2008;DHT22;47741;52.306;8.904;2022-11-02T11:18:49;16.40;99.90
2008;DHT22;47741;52.306;8.904;2022-11-02T11:21:40;16.10;99.90
2008;DHT22;47741;52.306;8.904;2022-11-02T11:24:28;15.90;99.90
2008;DHT22;47741;52.306;8.904;2022-11-02T11:27:16;16.10;99.90
2008;DHT22;47741;52.306;8.904;2022-11-02T11:30:11;16.10;99.90
2008;DHT22;47741;52.306;8.904;2022-11-02T11:33:13;15.70;99.90
2008;DHT22;47741;52.306;8.904;2022-11-02T11:35:59;15.40;99.90
2008;DHT22;47741;52.306;8.904;2022-11-02T11:38:46;15.70;99.90
2008;DHT22;47741;52.306;8.904;2022-11-02T11:41:37;15.60;99.90
2008;DHT22;47741;52.306;8.904;2022-11-02T11:44:24;15.60;99.90
2008;DHT22;47741;52.306;8.904;2022-11-02T11:47:12;15.80;99.90
2008;DHT22;47741;52.306;8.904;2022-11-02T11:50:00;15.80;99.90
2008;DHT22;47741;52.306;8.904;2022-11-02T11:53:06;15.60;99.90
2008;DHT22;47741;52.306;8.904;2022-11-02T11:56:15;15.70;99.90
2008;DHT22;47741;52.306;8.904;2022-11-02T11:59:24;15.70;99.90
2008;DHT22;47741;52.306;8.904;2022-11-02T12:05:13;15.80;99.90
2008;DHT22;47741;52.306;8.904;2022-11-02T12:14:26;15.70;99.90
2008;DHT22;47741;52.306;8.904;2022-11-02T12:33:15;14.90;99.90
2008;DHT22;47741;52.306;8.904;2022-11-02T12:39:46;15.10;99.90
2008;DHT22;47741;52.306;8.904;2022-11-02T12:42:38;15.40;99.90
2008;DHT22;47741;52.306;8.904;2022-11-02T12:45:43;15.20;99.90
2008;DHT22;47741;52.306;8.904;2022-11-02T12:51:33;15.50;99.90
2008;DHT22;47741;52.306;8.904;2022-11-02T12:54:47;15.80;99.90
2008;DHT22;47741;52.306;8.904;2022-11-02T12:57:35;16.00;99.90
2008;DHT22;47741;52.306;8.904;2022-11-02T13:00:22;16.10;99.90
2008;DHT22;47741;52.306;8.904;2022-11-02T13:03:32;16.10;99.90
2008;DHT22;47741;52.306;8.904;2022-11-02T13:06:23;15.90;99.90
2008;DHT22;47741;52.306;8.904;2022-11-02T13:12:19;15.90;99.90
2008;DHT22;47741;52.306;8.904;2022-11-02T13:15:12;16.00;99.90
2008;DHT22;47741;52.306;8.904;2022-11-02T13:18:23;16.10;99.90
2008;DHT22;47741;52.306;8.904;2022-11-02T13:21:09;16.30;99.90
2008;DHT22;47741;52.306;8.904;2022-11-02T13:23:56;16.60;99.90
2008;DHT22;47741;52.306;8.904;2022-11-02T13:26:49;16.50;99.90
2008;DHT22;47741;52.306;8.904;2022-11-02T13:29:39;16.20;99.90
2008;DHT22;47741;52.306;8.904;2022-11-02T13:32:37;16.10;99.90
2008;DHT22;47741;52.306;8.904;2022-11-02T13:35:33;16.00;99.90
2008;DHT22;47741;52.306;8.904;2022-11-02T13:38:24;16.10;99.90
2008;DHT22;47741;52.306;8.904;2022-11-02T13:51:02;15.70;99.90
2008;DHT22;47741;52.306;8.904;2022-11-02T13:53:55;15.70;99.90
2008;DHT22;47741;52.306;8.904;2022-11-02T13:56:51;15.60;99.90
2008;DHT22;47741;52.306;8.904;2022-11-02T13:59:42;15.70;99.90
2008;DHT22;47741;52.306;8.904;2022-11-02T14:02:30;15.80;99.90
2008;DHT22;47741;52.306;8.904;2022-11-02T14:05:21;15.80;99.90
2008;DHT22;47741;52.306;8.904;2022-11-02T14:11:24;15.60;99.90
2008;DHT22;47741;52.306;8.904;2022-11-02T14:20:01;15.80;99.90
2008;DHT22;47741;52.306;8.904;2022-11-02T14:26:29;15.70;99.90
2008;DHT22;47741;52.306;8.904;2022-11-02T14:29:35;15.60;99.90
2008;DHT22;47741;52.306;8.904;2022-11-02T14:45:04;18.00;98.50
2008;DHT22;47741;52.306;8.904;2022-11-02T14:47:54;18.10;98.30
2008;DHT22;47741;52.306;8.904;2022-11-02T14:50:56;17.90;98.40
2008;DHT22;47741;52.306;8.904;2022-11-02T14:53:53;17.70;98.20
2008;DHT22;47741;52.306;8.904;2022-11-02T14:59:38;17.90;98.80
2008;DHT22;47741;52.306;8.904;2022-11-02T15:02:35;18.30;98.30
2008;DHT22;47741;52.306;8.904;2022-11-02T15:08:23;18.00;98.30
2008;DHT22;47741;52.306;8.904;2022-11-02T15:23:02;17.10;99.20
2008;DHT22;47741;52.306;8.904;2022-11-02T15:25:51;16.90;99.80
2008;DHT22;47741;52.306;8.904;2022-11-02T15:28:37;16.50;99.70
2008;DHT22;47741;52.306;8.904;2022-11-02T15:31:33;16.40;99.90
2008;DHT22;47741;52.306;8.904;2022-11-02T15:34:19;16.10;99.90
2008;DHT22;47741;52.306;8.904;2022-11-02T15:37:17;15.80;99.90
2008;DHT22;47741;52.306;8.904;2022-11-02T15:40:05;15.30;99.90
2008;DHT22;47741;52.306;8.904;2022-11-02T15:43:09;15.00;99.90
2008;DHT22;47741;52.306;8.904;2022-11-02T15:46:06;14.60;99.90
2008;DHT22;47741;52.306;8.904;2022-11-02T15:49:07;14.60;99.90
2008;DHT22;47741;52.306;8.904;2022-11-02T16:04:06;14.00;99.90
2008;DHT22;47741;52.306;8.904;2022-11-02T16:06:53;13.90;99.90
2008;DHT22;47741;52.306;8.904;2022-11-02T16:09:40;13.70;99.90
2008;DHT22;47741;52.306;8.904;2022-11-02T16:12:29;13.60;99.90
2008;DHT22;47741;52.306;8.904;2022-11-02T16:15:17;13.60;99.90
2008;DHT22;47741;52.306;8.904;2022-11-02T16:58:20;12.60;99.90
2008;DHT22;47741;52.306;8.904;2022-11-02T17:01:10;12.60;99.90
2008;DHT22;47741;52.306;8.904;2022-11-02T17:04:19;13.00;99.90
2008;DHT22;47741;52.306;8.904;2022-11-02T17:07:18;12.70;99.90
2008;DHT22;47741;52.306;8.904;2022-11-02T17:10:08;12.50;99.90
2008;DHT22;47741;52.306;8.904;2022-11-02T17:13:12;12.40;99.90
2008;DHT22;47741;52.306;8.904;2022-11-02T17:24:30;11.70;99.90
2008;DHT22;47741;52.306;8.904;2022-11-02T17:27:26;12.00;99.90
2008;DHT22;47741;52.306;8.904;2022-11-02T17:36:09;11.90;99.90
2008;DHT22;47741;52.306;8.904;2022-11-02T17:38:58;11.90;99.90
2008;DHT22;47741;52.306;8.904;2022-11-02T17:41:53;11.80;99.90
2008;DHT22;47741;52.306;8.904;2022-11-02T18:38:51;11.80;99.90
2008;DHT22;47741;52.306;8.904;2022-11-02T18:41:37;11.90;99.90
2008;DHT22;47741;52.306;8.904;2022-11-02T18:44:25;11.90;99.90
2008;DHT22;47741;52.306;8.904;2022-11-02T18:47:10;11.80;99.90
2008;DHT22;47741;52.306;8.904;2022-11-02T18:49:57;11.80;99.90
2008;DHT22;47741;52.306;8.904;2022-11-02T19:26:49;11.70;99.90
2008;DHT22;47741;52.306;8.904;2022-11-02T19:29:35;12.10;99.90
2008;DHT22;47741;52.306;8.904;2022-11-02T19:32:21;12.00;99.90
2008;DHT22;47741;52.306;8.904;2022-11-02T19:35:07;12.00;99.90
2008;DHT22;47741;52.306;8.904;2022-11-02T19:43:29;12.10;99.90
2008;DHT22;47741;52.306;8.904;2022-11-02T19:46:17;12.10;99.90
2008;DHT22;47741;52.306;8.904;2022-11-02T19:49:04;12.30;99.90
2008;DHT22;47741;52.306;8.904;2022-11-02T19:51:51;12.20;99.90
2008;DHT22;47741;52.306;8.904;2022-11-02T19:54:37;12.10;99.90
2008;DHT22;47741;52.306;8.904;2022-11-02T19:57:23;12.10;99.90
2008;DHT22;47741;52.306;8.904;2022-11-02T20:00:09;12.10;99.90
2008;DHT22;47741;52.306;8.904;2022-11-02T20:02:56;12.00;99.90
2008;DHT22;47741;52.306;8.904;2022-11-02T20:05:42;12.10;99.90
2008;DHT22;47741;52.306;8.904;2022-11-02T20:08:35;12.20;99.90
2008;DHT22;47741;52.306;8.904;2022-11-02T20:11:21;12.30;99.90
2008;DHT22;47741;52.306;8.904;2022-11-02T20:14:09;12.70;99.90
2008;DHT22;47741;52.306;8.904;2022-11-02T20:16:58;12.40;99.90
2008;DHT22;47741;52.306;8.904;2022-11-02T20:19:44;12.30;99.90
2008;DHT22;47741;52.306;8.904;2022-11-02T20:22:30;12.40;99.90
2008;DHT22;47741;52.306;8.904;2022-11-02T20:25:16;12.50;99.90
2008;DHT22;47741;52.306;8.904;2022-11-02T20:28:02;13.40;99.90
2008;DHT22;47741;52.306;8.904;2022-11-02T20:30:51;12.40;99.90
2008;DHT22;47741;52.306;8.904;2022-11-02T20:33:39;12.40;99.90
2008;DHT22;47741;52.306;8.904;2022-11-02T20:36:25;12.40;99.90
2008;DHT22;47741;52.306;8.904;2022-11-02T20:39:13;12.40;99.90
2008;DHT22;47741;52.306;8.904;2022-11-02T20:42:02;12.50;99.90
2008;DHT22;47741;52.306;8.904;2022-11-02T20:44:48;12.40;99.90
2008;DHT22;47741;52.306;8.904;2022-11-02T20:47:34;12.70;99.90
2008;DHT22;47741;52.306;8.904;2022-11-02T20:50:20;12.40;99.90
2008;DHT22;47741;52.306;8.904;2022-11-02T20:53:13;12.20;99.90
2008;DHT22;47741;52.306;8.904;2022-11-02T20:55:59;12.30;99.90
2008;DHT22;47741;52.306;8.904;2022-11-02T20:58:45;12.20;99.90
2008;DHT22;47741;52.306;8.904;2022-11-02T21:01:31;12.30;99.90
2008;DHT22;47741;52.306;8.904;2022-11-02T21:04:17;12.10;99.90
2008;DHT22;47741;52.306;8.904;2022-11-02T21:07:03;12.00;99.90
2008;DHT22;47741;52.306;8.904;2022-11-02T21:09:49;12.00;99.90
2008;DHT22;47741;52.306;8.904;2022-11-02T21:12:35;11.90;99.90
2008;DHT22;47741;52.306;8.904;2022-11-02T21:15:40;11.70;99.90
2008;DHT22;47741;52.306;8.904;2022-11-02T21:18:30;11.80;99.90
2008;DHT22;47741;52.306;8.904;2022-11-02T21:21:19;11.70;99.90
2008;DHT22;47741;52.306;8.904;2022-11-02T21:29:45;11.70;99.90
2008;DHT22;47741;52.306;8.904;2022-11-02T21:32:31;11.80;99.90
2008;DHT22;47741;52.306;8.904;2022-11-02T21:35:20;12.10;99.90
2008;DHT22;47741;52.306;8.904;2022-11-02T21:38:06;12.10;99.90
2008;DHT22;47741;52.306;8.904;2022-11-02T21:49:16;11.80;99.90
2008;DHT22;47741;52.306;8.904;2022-11-02T21:52:03;12.00;99.90
2008;DHT22;47741;52.306;8.904;2022-11-02T21:57:41;11.90;99.90
2008;DHT22;47741;52.306;8.904;2022-11-02T22:00:29;12.30;99.90
2008;DHT22;47741;52.306;8.904;2022-11-02T22:03:35;12.20;99.90
2008;DHT22;47741;52.306;8.904;2022-11-02T22:06:21;12.40;99.90
2008;DHT22;47741;52.306;8.904;2022-11-02T22:09:10;12.70;99.90
2008;DHT22;47741;52.306;8.904;2022-11-02T22:11:57;12.40;99.90
2008;DHT22;47741;52.306;8.904;2022-11-02T22:15:01;12.50;99.90
2008;DHT22;47741;52.306;8.904;2022-11-02T22:17:48;12.40;99.90
2008;DHT22;47741;52.306;8.904;2022-11-02T22:20:34;12.50;99.90
2008;DHT22;47741;52.306;8.904;2022-11-02T22:23:20;12.40;99.90
2008;DHT22;47741;52.306;8.904;2022-11-02T22:26:07;12.40;99.90
2008;DHT22;47741;52.306;8.904;2022-11-02T22:28:54;12.60;99.90
2008;DHT22;47741;52.306;8.904;2022-11-02T22:31:45;12.60;99.90
2008;DHT22;47741;52.306;8.904;2022-11-02T22:34:31;12.60;99.90
2008;DHT22;47741;52.306;8.904;2022-11-02T22:37:17;12.60;99.90
2008;DHT22;47741;52.306;8.904;2022-11-02T22:40:22;12.60;99.90
2008;DHT22;47741;52.306;8.904;2022-11-02T22:43:08;12.80;99.90
2008;DHT22;47741;52.306;8.904;2022-11-02T22:46:06;12.90;99.90
2008;DHT22;47741;52.306;8.904;2022-11-02T22:48:53;12.90;99.90
2008;DHT22;47741;52.306;8.904;2022-11-02T22:51:43;12.80;99.90
2008;DHT22;47741;52.306;8.904;2022-11-02T22:54:30;12.50;99.90
2008;DHT22;47741;52.306;8.904;2022-11-02T22:57:16;12.70;99.90
2008;DHT22;47741;52.306;8.904;2022-11-02T23:00:03;12.50;99.90
2008;DHT22;47741;52.306;8.904;2022-11-02T23:02:49;12.40;99.90
2008;DHT22;47741;52.306;8.904;2022-11-02T23:05:36;12.70;99.90
2008;DHT22;47741;52.306;8.904;2022-11-02T23:08:22;12.80;99.90
2008;DHT22;47741;52.306;8.904;2022-11-02T23:11:10;12.70;99.90
2008;DHT22;47741;52.306;8.904;2022-11-02T23:16:52;12.70;99.90
2008;DHT22;47741;52.306;8.904;2022-11-02T23:19:38;12.50;99.90
2008;DHT22;47741;52.306;8.904;2022-11-02T23:22:24;12.50;99.90
2008;DHT22;47741;52.306;8.904;2022-11-02T23:25:16;12.40;99.90
2008;DHT22;47741;52.306;8.904;2022-11-02T23:28:03;12.20;99.90
2008;DHT22;47741;52.306;8.904;2022-11-02T23:31:10;12.30;99.90
2008;DHT22;47741;52.306;8.904;2022-11-02T23:34:15;12.20;99.90
2008;DHT22;47741;52.306;8.904;2022-11-02T23:37:03;12.00;99.90
2008;DHT22;47741;52.306;8.904;2022-11-02T23:39:52;11.90;99.90
2008;DHT22;47741;52.306;8.904;2022-11-02T23:42:38;11.80;99.90
2008;DHT22;47741;52.306;8.904;2022-11-02T23:45:24;11.90;99.90
2008;DHT22;47741;52.306;8.904;2022-11-02T23:48:15;11.70;99.90
2008;DHT22;47741;52.306;8.904;2022-11-02T23:51:03;11.90;99.90
2008;DHT22;47741;52.306;8.904;2022-11-02T23:54:08;11.90;99.90
2008;DHT22;47741;52.306;8.904;2022-11-02T23:57:12;11.80;99.90
2008;DHT22;47741;52.306;8.904;2022-11-02T23:59:58;11.80;99.90
